Avoca, Michigan
Current Conditions -  °F | °C
As of 4:36 PM on Friday 31 Oct 2014 (Local Time) from KPHN Reporting Station
Light Rain Light Rain  
Wind Chill:   Ceiling: 1200
Heat Index:   Visibility: 2.5mi
Dew Point:   Wind: 13mph
Humidity: 93%   Direction: 350°N
Pressure: 29.91"   Gusts: 23mph
Location:  43.06°N, 82.69°W
Report Text: KPHN 312036Z AUTO 35011G20KT 2 1/2SM -RA OVC012 05/04 A2991 RMK AO2
Loading
Personal Weather Stations






























Interactive Weather Map
Tropical Storm Tracking
New forecast layout! Learn more

10-Day Weather Forecast

Advertisements
Track Severe Weather on mobile